createdAt,value
2022-09-29T00:01:02.237Z,7.60
2022-09-29T00:03:29.015Z,9.47
2022-09-29T00:05:56.259Z,5.70
2022-09-29T00:08:25.014Z,5.87
2022-09-29T00:10:51.408Z,5.77
2022-09-29T00:13:18.326Z,5.63
2022-09-29T00:15:45.110Z,5.60
2022-09-29T00:18:15.041Z,9.93
2022-09-29T00:20:41.737Z,5.57
2022-09-29T00:23:08.113Z,5.60
2022-09-29T00:25:34.957Z,5.77
2022-09-29T00:28:01.678Z,6.33
2022-09-29T00:30:28.178Z,5.77
2022-09-29T00:32:54.505Z,5.60
2022-09-29T00:35:21.293Z,9.37
2022-09-29T00:37:47.736Z,5.40
2022-09-29T00:40:14.264Z,5.40
2022-09-29T00:42:40.753Z,5.87
2022-09-29T00:45:22.933Z,6.13
2022-09-29T00:47:58.934Z,6.47
2022-09-29T00:50:38.251Z,6.23
2022-09-29T00:53:12.140Z,5.53
2022-09-29T00:55:47.326Z,5.83
2022-09-29T00:58:27.755Z,5.10
2022-09-29T01:00:55.247Z,5.70
2022-09-29T01:03:24.022Z,7.17
2022-09-29T01:05:55.528Z,5.37
2022-09-29T01:08:33.953Z,4.83
2022-09-29T01:11:02.656Z,5.67
2022-09-29T01:13:30.411Z,7.43
2022-09-29T01:15:56.829Z,9.30
2022-09-29T01:18:23.417Z,5.03
2022-09-29T01:21:06.349Z,5.43
2022-09-29T01:24:08.939Z,9.13
2022-09-29T01:26:38.210Z,5.47
2022-09-29T01:29:30.124Z,9.47
2022-09-29T01:31:57.581Z,5.23
2022-09-29T01:34:45.883Z,5.53
2022-09-29T01:37:27.863Z,4.97
2022-09-29T01:40:14.058Z,9.40
2022-09-29T01:42:57.701Z,6.77
2022-09-29T01:45:24.074Z,5.40
2022-09-29T01:47:56.272Z,5.60
2022-09-29T01:50:29.785Z,6.97
2022-09-29T01:53:01.685Z,5.77
2022-09-29T01:55:32.984Z,7.83
2022-09-29T01:58:07.244Z,8.40
2022-09-29T02:00:41.359Z,5.10
2022-09-29T02:03:16.926Z,5.73
2022-09-29T02:05:48.547Z,4.93
2022-09-29T02:08:25.221Z,5.20
2022-09-29T02:10:59.651Z,5.70
2022-09-29T02:13:29.118Z,7.10
2022-09-29T02:15:57.334Z,4.60
2022-09-29T02:18:30.177Z,4.90
2022-09-29T02:20:56.682Z,5.00
2022-09-29T02:23:23.186Z,4.77
2022-09-29T02:25:51.085Z,4.70
2022-09-29T02:28:17.943Z,5.00
2022-09-29T02:30:44.455Z,5.83
2022-09-29T02:33:25.222Z,8.13
2022-09-29T02:36:13.013Z,5.07
2022-09-29T02:39:00.594Z,4.97
2022-09-29T02:41:36.443Z,6.50
2022-09-29T02:44:15.020Z,4.50
2022-09-29T02:46:59.885Z,4.83
2022-09-29T02:49:32.662Z,9.70
2022-09-29T02:52:26.723Z,5.43
2022-09-29T02:55:05.639Z,4.93
2022-09-29T02:57:50.107Z,6.57
2022-09-29T03:00:19.449Z,4.60
2022-09-29T03:02:46.331Z,5.70
2022-09-29T03:05:16.713Z,6.67
2022-09-29T03:07:43.243Z,7.27
2022-09-29T03:10:10.998Z,4.97
2022-09-29T03:12:38.786Z,5.03
2022-09-29T03:15:07.064Z,6.97
2022-09-29T03:17:33.769Z,5.20
2022-09-29T03:20:00.377Z,4.90
2022-09-29T03:22:27.251Z,4.73
2022-09-29T03:24:53.562Z,5.57
2022-09-29T03:27:20.088Z,6.43
2022-09-29T03:29:46.487Z,5.47
2022-09-29T03:32:12.835Z,7.87
2022-09-29T03:34:39.317Z,5.63
2022-09-29T03:37:05.643Z,7.57
2022-09-29T03:39:31.949Z,5.43
2022-09-29T03:41:58.277Z,4.87
2022-09-29T03:44:24.631Z,6.03
2022-09-29T03:46:51.354Z,4.77
2022-09-29T03:49:18.243Z,5.30
2022-09-29T03:51:44.696Z,4.83
2022-09-29T03:54:11.580Z,5.03
2022-09-29T03:56:38.507Z,5.13
2022-09-29T03:59:08.347Z,5.53
2022-09-29T04:01:36.037Z,4.63
2022-09-29T04:04:02.437Z,4.63
2022-09-29T04:06:28.902Z,4.77
2022-09-29T04:08:55.253Z,4.60
2022-09-29T04:11:21.610Z,5.03
2022-09-29T04:13:48.107Z,4.43
2022-09-29T04:16:14.497Z,4.53
2022-09-29T04:18:40.861Z,4.67
2022-09-29T04:21:08.329Z,5.07
2022-09-29T04:23:35.643Z,4.93
2022-09-29T04:26:02.351Z,4.93
2022-09-29T04:28:31.330Z,5.03
2022-09-29T04:30:57.928Z,5.13
2022-09-29T04:33:24.245Z,4.73
2022-09-29T04:35:51.378Z,5.33
2022-09-29T04:38:18.418Z,4.90
2022-09-29T04:40:44.882Z,4.77
2022-09-29T04:43:11.239Z,5.00
2022-09-29T04:45:37.713Z,4.50
2022-09-29T04:48:04.536Z,4.90
2022-09-29T04:50:31.195Z,4.77
2022-09-29T04:52:57.800Z,5.03
2022-09-29T04:55:24.297Z,5.37
2022-09-29T04:57:50.837Z,4.77
2022-09-29T05:00:17.531Z,4.67
2022-09-29T05:02:48.872Z,4.80
2022-09-29T05:05:16.168Z,5.77
2022-09-29T05:07:42.505Z,5.70
2022-09-29T05:10:09.704Z,6.10
2022-09-29T05:12:36.179Z,7.23
2022-09-29T05:15:04.352Z,5.90
2022-09-29T05:17:30.670Z,5.13
2022-09-29T05:19:57.393Z,4.83
2022-09-29T05:22:24.562Z,5.17
2022-09-29T05:24:52.182Z,5.00
2022-09-29T05:27:19.228Z,5.10
2022-09-29T05:29:45.562Z,5.20
2022-09-29T05:32:12.844Z,4.20
2022-09-29T05:34:39.836Z,5.93
2022-09-29T05:37:06.204Z,5.43
2022-09-29T05:39:34.705Z,9.33
2022-09-29T05:42:02.528Z,11.50
2022-09-29T05:44:29.139Z,7.93
2022-09-29T05:46:55.445Z,5.43
2022-09-29T05:49:21.791Z,4.17
2022-09-29T05:51:48.147Z,4.17
2022-09-29T05:54:14.605Z,4.63
2022-09-29T05:56:45.189Z,5.23
2022-09-29T05:59:12.046Z,4.70
2022-09-29T06:01:38.728Z,6.43
2022-09-29T06:04:05.134Z,5.67
2022-09-29T06:06:31.451Z,8.30
2022-09-29T06:08:58.884Z,6.50
2022-09-29T06:11:28.386Z,6.30
2022-09-29T06:13:55.997Z,5.87
2022-09-29T06:16:25.397Z,5.90
2022-09-29T06:18:52.239Z,7.43
2022-09-29T06:21:21.619Z,11.97
2022-09-29T06:23:47.938Z,5.47
2022-09-29T06:26:20.140Z,6.00
2022-09-29T06:28:49.231Z,9.23
2022-09-29T06:31:22.022Z,5.73
2022-09-29T06:33:48.518Z,8.43
2022-09-29T06:36:37.622Z,5.63
2022-09-29T06:39:09.481Z,24.43
2022-09-29T06:41:35.827Z,16.43
2022-09-29T06:44:02.709Z,6.73
2022-09-29T06:46:29.271Z,8.33
2022-09-29T06:48:56.386Z,7.80
2022-09-29T06:51:31.397Z,7.77
2022-09-29T06:54:11.721Z,12.23
2022-09-29T06:56:39.040Z,7.97
2022-09-29T06:59:05.607Z,6.30
2022-09-29T07:01:32.161Z,7.47
2022-09-29T07:04:00.750Z,24.10
2022-09-29T07:06:27.403Z,14.23
2022-09-29T07:08:54.838Z,15.33
2022-09-29T07:11:21.463Z,13.53
2022-09-29T07:13:51.167Z,16.17
2022-09-29T07:16:21.044Z,21.40
2022-09-29T07:18:48.643Z,15.17
2022-09-29T07:21:18.950Z,18.07
2022-09-29T07:23:47.164Z,10.97
2022-09-29T07:26:16.373Z,23.37
2022-09-29T07:28:43.199Z,26.30
2022-09-29T07:31:15.555Z,14.17
2022-09-29T07:33:43.715Z,5.37
2022-09-29T07:36:10.300Z,4.80
2022-09-29T07:38:36.910Z,5.17
2022-09-29T07:41:06.489Z,7.27
2022-09-29T07:43:33.063Z,4.90
2022-09-29T07:46:02.551Z,8.87
2022-09-29T07:48:32.041Z,5.13
2022-09-29T07:51:04.029Z,7.07
2022-09-29T07:53:31.016Z,5.33
2022-09-29T07:56:05.549Z,5.40
2022-09-29T07:58:32.846Z,4.90
2022-09-29T08:01:00.940Z,4.97
2022-09-29T08:03:27.518Z,6.47
2022-09-29T08:05:53.926Z,4.90
2022-09-29T08:08:20.319Z,4.70
2022-09-29T08:10:52.659Z,5.00
2022-09-29T08:13:20.369Z,5.37
2022-09-29T08:15:46.822Z,4.70
2022-09-29T08:18:13.308Z,5.10
2022-09-29T08:20:39.636Z,5.30
2022-09-29T08:23:06.970Z,5.40
2022-09-29T08:25:35.433Z,5.07
2022-09-29T08:28:01.975Z,6.40
2022-09-29T08:30:28.582Z,6.70
2022-09-29T08:32:55.327Z,5.70
2022-09-29T08:35:21.655Z,4.63
2022-09-29T08:37:48.987Z,6.10
2022-09-29T08:40:16.763Z,5.03
2022-09-29T08:43:02.025Z,6.60
2022-09-29T08:45:33.139Z,5.13
2022-09-29T08:48:22.269Z,5.30
2022-09-29T08:50:59.570Z,4.50
2022-09-29T08:53:29.351Z,4.70
2022-09-29T08:56:06.885Z,4.50
2022-09-29T08:58:34.287Z,5.23
2022-09-29T09:01:21.653Z,4.47
2022-09-29T09:04:03.157Z,6.73
2022-09-29T09:06:46.142Z,4.90
2022-09-29T09:09:33.570Z,6.53
2022-09-29T09:12:22.112Z,5.10
2022-09-29T09:15:19.610Z,5.40
2022-09-29T09:18:09.206Z,7.83
2022-09-29T09:20:53.197Z,4.87
2022-09-29T09:23:23.080Z,5.27
2022-09-29T09:25:53.806Z,5.00
2022-09-29T09:28:23.913Z,5.13
2022-09-29T09:31:17.172Z,4.57
2022-09-29T09:34:01.959Z,4.43
2022-09-29T09:36:42.879Z,4.63
2022-09-29T09:39:16.514Z,5.13
2022-09-29T09:41:47.912Z,4.30
2022-09-29T09:44:25.544Z,6.73
2022-09-29T09:46:57.151Z,3.90
2022-09-29T09:49:37.945Z,3.60
2022-09-29T09:52:18.219Z,4.23
2022-09-29T09:54:56.223Z,3.70
2022-09-29T09:57:41.398Z,3.50
2022-09-29T10:00:17.833Z,3.50
2022-09-29T10:02:47.644Z,3.70
2022-09-29T10:05:17.398Z,4.67
2022-09-29T10:07:45.103Z,5.93
2022-09-29T10:10:19.402Z,4.80
2022-09-29T10:12:46.144Z,3.80
2022-09-29T10:15:20.090Z,5.60
2022-09-29T10:17:56.998Z,3.50
2022-09-29T10:20:37.313Z,3.80
2022-09-29T10:23:33.953Z,6.87
2022-09-29T10:26:15.732Z,4.13
2022-09-29T10:28:45.816Z,9.20
2022-09-29T10:31:24.353Z,3.67
2022-09-29T10:34:10.554Z,3.57
2022-09-29T10:36:57.526Z,3.23
2022-09-29T10:39:45.492Z,3.70
2022-09-29T10:42:34.439Z,3.20
2022-09-29T10:45:10.862Z,4.53
2022-09-29T10:47:37.734Z,4.00
2022-09-29T10:50:08.413Z,3.50
2022-09-29T10:52:36.751Z,5.00
2022-09-29T10:55:04.784Z,3.80
2022-09-29T10:57:34.070Z,3.20
2022-09-29T11:00:01.233Z,4.47
2022-09-29T11:02:35.631Z,4.57
2022-09-29T11:05:16.578Z,5.30
2022-09-29T11:07:52.966Z,3.20
2022-09-29T11:10:36.854Z,3.67
2022-09-29T11:13:36.873Z,4.37
2022-09-29T11:16:17.834Z,3.27
2022-09-29T11:18:50.985Z,4.23
2022-09-29T11:21:20.142Z,4.03
2022-09-29T11:23:49.433Z,3.37
2022-09-29T11:26:27.786Z,3.00
2022-09-29T11:28:59.018Z,4.83
2022-09-29T11:31:40.487Z,2.70
2022-09-29T11:34:17.137Z,3.83
2022-09-29T11:36:56.126Z,2.93
2022-09-29T11:39:49.450Z,3.93
2022-09-29T11:42:22.026Z,2.50
2022-09-29T11:45:03.583Z,3.07
2022-09-29T11:55:53.508Z,2.23
2022-09-29T11:58:38.837Z,2.63
2022-09-29T12:01:34.977Z,2.00
2022-09-29T12:04:09.695Z,2.97
2022-09-29T12:07:06.671Z,2.97
2022-09-29T12:09:41.725Z,1.13
2022-09-29T12:12:28.871Z,2.23
2022-09-29T12:15:14.978Z,1.70
2022-09-29T12:17:53.916Z,3.83
2022-09-29T12:20:36.317Z,3.37
2022-09-29T12:23:09.481Z,1.63
2022-09-29T12:25:40.771Z,2.80
2022-09-29T12:28:14.994Z,3.57
2022-09-29T12:30:51.597Z,1.30
2022-09-29T12:33:26.403Z,4.00
2022-09-29T12:35:55.514Z,2.93
2022-09-29T12:38:40.066Z,1.47
2022-09-29T12:41:22.554Z,1.40
2022-09-29T12:43:57.235Z,2.43
2022-09-29T12:46:38.265Z,2.47
2022-09-29T12:49:08.075Z,2.00
2022-09-29T12:51:44.303Z,2.03
2022-09-29T12:54:47.031Z,4.07
2022-09-29T12:57:20.448Z,2.13
2022-09-29T12:59:56.761Z,2.07
2022-09-29T13:02:23.111Z,3.27
2022-09-29T13:05:01.819Z,3.73
2022-09-29T13:07:55.353Z,2.53
2022-09-29T13:10:42.632Z,2.20
2022-09-29T13:13:46.898Z,2.60
2022-09-29T13:16:40.637Z,2.27
2022-09-29T13:19:52.624Z,3.23
2022-09-29T13:22:48.201Z,1.90
2022-09-29T13:25:36.011Z,1.97
2022-09-29T13:28:04.982Z,1.57
2022-09-29T13:30:37.106Z,2.00
2022-09-29T13:33:30.093Z,2.27
2022-09-29T13:35:57.193Z,1.53
2022-09-29T13:38:37.640Z,1.90
2022-09-29T13:41:22.367Z,5.77
2022-09-29T13:43:51.684Z,1.70
2022-09-29T13:46:30.396Z,3.50
2022-09-29T13:49:12.173Z,1.60
2022-09-29T13:51:48.239Z,2.97
2022-09-29T13:54:30.861Z,4.57
2022-09-29T13:57:13.467Z,2.87
2022-09-29T13:59:44.699Z,1.90
2022-09-29T14:02:35.508Z,1.83
2022-09-29T14:05:03.439Z,2.90
2022-09-29T14:08:06.305Z,3.10
2022-09-29T14:10:35.415Z,2.53
2022-09-29T14:13:12.896Z,2.97
2022-09-29T14:15:46.443Z,2.03
2022-09-29T14:18:31.144Z,3.83
2022-09-29T14:21:12.047Z,4.40
2022-09-29T14:23:44.190Z,2.03
2022-09-29T14:26:49.049Z,3.90
2022-09-29T14:29:32.714Z,1.50
2022-09-29T14:32:01.370Z,4.37
2022-09-29T14:34:31.117Z,2.73
2022-09-29T14:37:00.055Z,3.07
2022-09-29T14:39:27.780Z,2.23
2022-09-29T14:41:54.514Z,8.20
2022-09-29T14:44:24.055Z,6.50
2022-09-29T14:47:09.182Z,1.70
2022-09-29T14:50:12.696Z,3.03
2022-09-29T14:53:07.027Z,2.50
2022-09-29T14:55:33.283Z,3.27
2022-09-29T14:58:21.515Z,7.53
2022-09-29T15:01:02.199Z,2.77
2022-09-29T15:03:35.372Z,3.17
2022-09-29T15:06:16.822Z,3.57
2022-09-29T15:08:55.033Z,2.10
2022-09-29T15:11:38.966Z,2.70
2022-09-29T15:14:20.734Z,3.83
2022-09-29T15:17:05.367Z,3.20
2022-09-29T15:19:57.637Z,2.77
2022-09-29T15:22:43.030Z,5.03
2022-09-29T15:25:26.565Z,2.93
2022-09-29T15:27:54.471Z,2.93
2022-09-29T15:30:23.478Z,4.10
2022-09-29T15:32:51.338Z,3.37
2022-09-29T15:35:24.415Z,7.73
2022-09-29T15:37:50.703Z,2.47
2022-09-29T15:40:20.715Z,2.47
2022-09-29T15:42:47.555Z,2.67
2022-09-29T15:45:22.073Z,3.40
2022-09-29T15:47:49.118Z,3.40
2022-09-29T15:50:23.875Z,3.67
2022-09-29T15:52:50.978Z,4.27
2022-09-29T15:55:27.547Z,2.23
2022-09-29T15:57:55.615Z,3.10
2022-09-29T16:00:21.889Z,2.30
2022-09-29T16:02:50.562Z,5.03
2022-09-29T16:05:22.872Z,7.57
2022-09-29T16:07:52.082Z,8.90
2022-09-29T16:10:21.387Z,3.97
2022-09-29T16:12:53.750Z,3.70
2022-09-29T16:15:32.668Z,6.13
2022-09-29T16:18:02.091Z,3.17
2022-09-29T16:20:31.480Z,5.60
2022-09-29T16:23:07.859Z,2.50
2022-09-29T16:25:34.571Z,5.40
2022-09-29T16:28:07.173Z,4.10
2022-09-29T16:30:36.361Z,4.87
2022-09-29T16:33:14.983Z,4.30
2022-09-29T16:35:58.527Z,4.47
2022-09-29T16:38:35.505Z,3.00
2022-09-29T16:41:14.601Z,5.90
2022-09-29T16:43:42.899Z,6.20
2022-09-29T16:46:14.695Z,5.30
2022-09-29T16:48:44.580Z,3.90
2022-09-29T16:51:39.234Z,2.90
2022-09-29T16:54:06.214Z,3.70
2022-09-29T16:56:35.351Z,4.83
2022-09-29T16:59:15.031Z,6.33
2022-09-29T17:01:42.579Z,3.47
2022-09-29T17:04:10.562Z,3.70
2022-09-29T17:06:37.308Z,5.67
2022-09-29T17:09:05.636Z,5.30
2022-09-29T17:11:32.105Z,3.07
2022-09-29T17:13:58.636Z,3.70
2022-09-29T17:16:26.386Z,3.50
2022-09-29T17:18:54.904Z,3.00
2022-09-29T17:21:21.452Z,10.13
2022-09-29T17:23:47.848Z,3.37
2022-09-29T17:26:50.108Z,2.10
2022-09-29T17:29:16.575Z,3.73
2022-09-29T17:31:43.021Z,6.37
2022-09-29T17:34:09.347Z,5.90
2022-09-29T17:36:37.111Z,4.30
2022-09-29T17:39:03.783Z,5.50
2022-09-29T17:41:30.188Z,5.80
2022-09-29T17:43:56.560Z,3.67
2022-09-29T17:46:23.153Z,6.07
2022-09-29T17:48:49.513Z,4.70
2022-09-29T17:51:20.655Z,2.60
2022-09-29T17:53:47.067Z,4.07
2022-09-29T17:56:22.055Z,4.03
2022-09-29T17:58:49.700Z,4.80
2022-09-29T18:01:19.969Z,4.23
2022-09-29T18:03:47.913Z,4.23
2022-09-29T18:06:21.122Z,3.90
2022-09-29T18:08:53.834Z,5.03
2022-09-29T18:11:23.200Z,5.20
2022-09-29T18:13:49.615Z,8.07
2022-09-29T18:16:21.070Z,9.97
2022-09-29T18:18:48.499Z,7.83
2022-09-29T18:21:20.112Z,8.80
2022-09-29T18:23:47.106Z,5.23
2022-09-29T18:26:14.834Z,6.20
2022-09-29T18:28:42.233Z,9.80
2022-09-29T18:31:35.129Z,6.00
2022-09-29T18:34:01.481Z,7.57
2022-09-29T18:36:34.313Z,6.87
2022-09-29T18:39:00.707Z,6.93
2022-09-29T18:41:27.357Z,6.40
2022-09-29T18:43:56.202Z,7.53
2022-09-29T18:46:25.441Z,9.63
2022-09-29T18:48:51.824Z,7.67
2022-09-29T18:51:21.366Z,9.87
2022-09-29T18:53:48.311Z,9.23
2022-09-29T18:56:19.062Z,7.23
2022-09-29T18:58:45.497Z,8.00
2022-09-29T19:01:15.014Z,8.27
2022-09-29T19:03:43.076Z,15.50
2022-09-29T19:06:15.492Z,7.90
2022-09-29T19:08:44.344Z,7.83
2022-09-29T19:11:19.366Z,9.70
2022-09-29T19:13:45.875Z,6.93
2022-09-29T19:16:13.261Z,8.37
2022-09-29T19:18:39.672Z,9.17
2022-09-29T19:21:13.436Z,5.77
2022-09-29T19:23:46.531Z,6.00
2022-09-29T19:26:19.139Z,5.70
2022-09-29T19:28:47.980Z,7.83
2022-09-29T19:31:19.209Z,11.10
2022-09-29T19:33:45.951Z,6.80
2022-09-29T19:36:18.233Z,7.73
2022-09-29T19:38:45.515Z,9.17
2022-09-29T19:41:18.008Z,12.20
2022-09-29T19:43:45.643Z,10.60
2022-09-29T19:46:13.344Z,18.20
2022-09-29T19:48:40.272Z,14.03
2022-09-29T19:51:25.275Z,14.13
2022-09-29T19:54:10.264Z,11.07
2022-09-29T19:56:44.549Z,11.23
2022-09-29T19:59:14.278Z,12.57
2022-09-29T20:01:42.659Z,9.03
2022-09-29T20:04:09.146Z,10.90
2022-09-29T20:06:36.105Z,8.37
2022-09-29T20:09:06.739Z,7.90
2022-09-29T20:11:33.757Z,11.20
2022-09-29T20:14:03.370Z,11.50
2022-09-29T20:16:33.408Z,7.20
2022-09-29T20:19:01.124Z,8.90
2022-09-29T20:21:27.728Z,8.13
2022-09-29T20:23:54.192Z,7.80
2022-09-29T20:26:20.927Z,16.50
2022-09-29T20:28:50.309Z,7.10
2022-09-29T20:31:16.727Z,12.77
2022-09-29T20:33:43.069Z,9.07
2022-09-29T20:36:09.986Z,9.17
2022-09-29T20:38:41.409Z,12.07
2022-09-29T20:41:08.280Z,9.67
2022-09-29T20:43:34.873Z,11.80
2022-09-29T20:46:04.410Z,8.43
2022-09-29T20:48:31.881Z,8.23
2022-09-29T20:51:01.921Z,9.07
2022-09-29T20:53:28.959Z,7.97
2022-09-29T20:56:06.677Z,7.37
2022-09-29T20:58:34.775Z,7.03
2022-09-29T21:01:12.611Z,8.67
2022-09-29T21:03:39.750Z,7.20
2022-09-29T21:06:06.200Z,10.40
2022-09-29T21:08:32.948Z,9.17
2022-09-29T21:11:01.256Z,9.43
2022-09-29T21:13:29.451Z,7.53
2022-09-29T21:16:00.025Z,11.73
2022-09-29T21:18:28.033Z,10.10
2022-09-29T21:21:02.301Z,9.47
2022-09-29T21:23:33.388Z,9.53
2022-09-29T21:26:14.052Z,10.93
2022-09-29T21:28:42.839Z,8.10
2022-09-29T21:31:12.376Z,10.03
2022-09-29T21:33:41.423Z,9.13
2022-09-29T21:36:10.717Z,14.10
2022-09-29T21:38:39.127Z,9.73
2022-09-29T21:41:26.250Z,9.33
2022-09-29T21:43:55.441Z,8.60
2022-09-29T21:46:27.293Z,10.20
2022-09-29T21:48:59.114Z,8.80
2022-09-29T21:51:34.739Z,10.40
2022-09-29T21:54:02.587Z,7.40
2022-09-29T21:56:32.143Z,6.87
2022-09-29T21:58:58.806Z,7.63
2022-09-29T22:01:26.579Z,11.23
2022-09-29T22:03:55.464Z,9.83
2022-09-29T22:06:27.230Z,7.43
2022-09-29T22:08:54.395Z,10.00
2022-09-29T22:11:23.877Z,6.33
2022-09-29T22:13:56.341Z,7.73
2022-09-29T22:16:25.948Z,7.57
2022-09-29T22:19:18.368Z,8.50
2022-09-29T22:21:40.454Z,7.40
2022-09-29T22:24:07.212Z,6.50
2022-09-29T22:26:33.818Z,8.17
2022-09-29T22:29:01.706Z,7.27
2022-09-29T22:31:29.272Z,8.43
2022-09-29T22:33:58.028Z,5.80
2022-09-29T22:36:26.367Z,8.13
2022-09-29T22:38:53.210Z,5.80
2022-09-29T22:41:22.961Z,5.97
2022-09-29T22:43:51.320Z,8.83
2022-09-29T22:46:17.648Z,6.07
2022-09-29T22:48:43.958Z,6.13
2022-09-29T22:51:10.302Z,5.57
2022-09-29T22:53:37.803Z,5.10
2022-09-29T22:56:17.183Z,10.00
2022-09-29T22:58:43.578Z,8.10
2022-09-29T23:01:15.486Z,6.70
2022-09-29T23:03:43.434Z,5.40
2022-09-29T23:06:10.084Z,6.60
2022-09-29T23:08:37.311Z,7.90
2022-09-29T23:11:06.643Z,4.70
2022-09-29T23:13:36.734Z,6.53
2022-09-29T23:16:12.804Z,7.00
2022-09-29T23:18:44.929Z,8.27
2022-09-29T23:21:19.777Z,6.00
2022-09-29T23:23:57.758Z,5.70
2022-09-29T23:26:25.092Z,6.60
2022-09-29T23:28:51.881Z,8.13
2022-09-29T23:31:18.851Z,9.00
2022-09-29T23:33:45.256Z,4.80
2022-09-29T23:36:14.160Z,5.77
2022-09-29T23:39:01.782Z,6.07
2022-09-29T23:41:29.840Z,7.90
2022-09-29T23:43:58.952Z,5.57
2022-09-29T23:46:31.140Z,7.57
2022-09-29T23:49:01.911Z,4.27
2022-09-29T23:51:32.095Z,4.57
2022-09-29T23:53:59.632Z,6.77
2022-09-29T23:56:27.179Z,9.00
2022-09-29T23:58:53.674Z,5.67
